Time;durP1;ratioP1;P1;durP2;ratioP2;P2;SDS_P1;SDS_P2;PMS_P1;PMS_P2;Temp;Humidity;BMP_temperature;BMP_pressure;BME280_temperature;BME280_humidity;BME280_pressure;Samples;Min_cycle;Max_cycle;Signal;HPM_P1;HPM_P2
2023/03/24 00:02:36;;;;;;;4.00;3.23;;;;;;;;;;5009553;28;20519;-75
2023/03/24 00:05:40;;;;;;;5.03;3.10;;;;;;;;;;5033079;28;20189;-76
2023/03/24 00:08:46;;;;;;;6.63;3.60;;;;;;;;;;5032897;28;20228;-75
2023/03/24 00:11:50;;;;;;;4.87;2.90;;;;;;;;;;5021387;28;20185;-77
2023/03/24 00:14:55;;;;;;;5.67;3.60;;;;;;;;;;5032910;28;20208;-76
2023/03/24 00:17:59;;;;;;;5.93;3.40;;;;;;;;;;5009821;28;20220;-76
2023/03/24 00:21:04;;;;;;;6.07;3.23;;;;;;;;;;5020733;28;20184;-76
2023/03/24 00:24:10;;;;;;;3.47;3.10;;;;;;;;;;5033103;28;20204;-75
2023/03/24 00:27:16;;;;;;;3.83;3.10;;;;;;;;;;5033218;28;20566;-76
2023/03/24 00:30:21;;;;;;;4.13;3.17;;;;;;;;;;5033332;28;20181;-76
2023/03/24 00:33:25;;;;;;;5.33;2.80;;;;;;;;;;5020911;28;20181;-76
2023/03/24 00:36:29;;;;;;;5.57;3.27;;;;;;;;;;5020732;28;20197;-76
2023/03/24 00:39:33;;;;;;;4.50;3.20;;;;;;;;;;5032697;28;20181;-75
2023/03/24 00:42:39;;;;;;;7.23;3.00;;;;;;;;;;5031833;28;20188;-76
2023/03/24 00:45:46;;;;;;;4.53;3.10;;;;;;;;;;5033140;28;20185;-76
2023/03/24 00:48:52;;;;;;;4.67;3.17;;;;;;;;;;5020581;28;20228;-76
2023/03/24 00:51:57;;;;;;;4.03;3.13;;;;;;;;;;5023252;28;20176;-75
2023/03/24 00:55:03;;;;;;;5.80;3.03;;;;;;;;;;5024200;28;20641;-76
2023/03/24 00:58:07;;;;;;;4.77;3.40;;;;;;;;;;5024085;28;20213;-76
2023/03/24 01:01:11;;;;;;;5.33;3.30;;;;;;;;;;5024338;28;20188;-76
2023/03/24 01:04:16;;;;;;;4.33;2.97;;;;;;;;;;5023960;28;20673;-76
2023/03/24 01:07:22;;;;;;;4.87;3.10;;;;;;;;;;5023800;28;20221;-75
2023/03/24 01:10:26;;;;;;;3.90;2.90;;;;;;;;;;5036020;28;20196;-75
2023/03/24 01:13:29;;;;;;;5.43;3.40;;;;;;;;;;5023930;28;20645;-76
2023/03/24 01:16:34;;;;;;;4.00;3.27;;;;;;;;;;5024304;28;20617;-76
2023/03/24 01:19:39;;;;;;;3.83;2.87;;;;;;;;;;5023854;28;20196;-75
2023/03/24 01:22:45;;;;;;;6.73;3.00;;;;;;;;;;5035261;28;20181;-76
2023/03/24 01:25:50;;;;;;;3.93;2.73;;;;;;;;;;5023884;28;20205;-75
2023/03/24 01:28:55;;;;;;;3.50;2.87;;;;;;;;;;5023667;28;20236;-76
2023/03/24 01:31:58;;;;;;;4.40;3.00;;;;;;;;;;5023962;28;20625;-76
2023/03/24 01:35:02;;;;;;;3.93;2.50;;;;;;;;;;5035052;28;20181;-76
2023/03/24 01:38:08;;;;;;;5.13;2.80;;;;;;;;;;5023731;28;20216;-76
2023/03/24 01:41:12;;;;;;;9.00;3.23;;;;;;;;;;5034951;28;20185;-76
2023/03/24 01:44:24;;;;;;;3.23;2.57;;;;;;;;;;5034936;28;20185;-75
2023/03/24 01:47:28;;;;;;;3.23;2.60;;;;;;;;;;5023176;28;20263;-76
2023/03/24 01:50:32;;;;;;;3.33;2.70;;;;;;;;;;5023429;28;20516;-76
2023/03/24 01:53:42;;;;;;;4.17;2.80;;;;;;;;;;5035558;28;20189;-76
2023/03/24 01:56:53;;;;;;;3.93;2.90;;;;;;;;;;5034899;28;20185;-75
2023/03/24 01:59:59;;;;;;;6.80;2.80;;;;;;;;;;5035713;28;20188;-76
2023/03/24 02:03:32;;;;;;;4.63;3.07;;;;;;;;;;5033813;28;20181;-76
2023/03/24 02:06:39;;;;;;;5.40;3.37;;;;;;;;;;5011538;28;20197;-76
2023/03/24 02:09:45;;;;;;;5.23;3.40;;;;;;;;;;5022716;28;20213;-76
2023/03/24 02:12:49;;;;;;;4.93;3.07;;;;;;;;;;5023036;28;20181;-76
2023/03/24 02:16:11;;;;;;;5.33;3.33;;;;;;;;;;5022608;28;20665;-76
2023/03/24 02:19:22;;;;;;;8.30;3.83;;;;;;;;;;5011474;28;20181;-76
2023/03/24 02:22:50;;;;;;;5.10;3.47;;;;;;;;;;5022875;28;20518;-76
2023/03/24 02:26:00;;;;;;;5.67;3.60;;;;;;;;;;5022388;28;20190;-76
2023/03/24 02:29:22;;;;;;;5.17;3.73;;;;;;;;;;5011259;28;20229;-76
2023/03/24 02:32:41;;;;;;;6.80;3.30;;;;;;;;;;5022403;28;20185;-76
2023/03/24 02:36:22;;;;;;;3.67;3.27;;;;;;;;;;5022991;28;20201;-76
2023/03/24 02:39:57;;;;;;;6.43;3.90;;;;;;;;;;5022585;28;20185;-75
2023/03/24 02:43:10;;;;;;;5.30;3.40;;;;;;;;;;5022428;28;20546;-76
2023/03/24 02:46:38;;;;;;;4.33;3.30;;;;;;;;;;5034255;28;20185;-76
2023/03/24 02:50:12;;;;;;;4.87;3.67;;;;;;;;;;5022253;28;20213;-75
2023/03/24 02:53:47;;;;;;;7.03;3.60;;;;;;;;;;5022515;28;20189;-76
2023/03/24 02:57:23;;;;;;;6.73;3.83;;;;;;;;;;5022100;28;20225;-75
2023/03/24 03:01:02;;;;;;;4.87;3.80;;;;;;;;;;5025850;28;20173;-75
2023/03/24 03:04:32;;;;;;;4.63;3.67;;;;;;;;;;5034179;28;20184;-75
2023/03/24 03:07:36;;;;;;;4.40;3.30;;;;;;;;;;5034307;28;20224;-76
2023/03/24 03:10:43;;;;;;;4.70;3.70;;;;;;;;;;5034298;28;20181;-75
2023/03/24 03:13:53;;;;;;;3.60;3.00;;;;;;;;;;5021390;28;20188;-75
2023/03/24 03:17:05;;;;;;;4.63;3.10;;;;;;;;;;5034137;28;20188;-76
2023/03/24 03:20:17;;;;;;;4.77;3.47;;;;;;;;;;5021929;28;20177;-75
2023/03/24 03:23:28;;;;;;;4.17;3.20;;;;;;;;;;5021686;28;20177;-75
2023/03/24 03:26:33;;;;;;;5.37;3.33;;;;;;;;;;5033774;28;20189;-75
2023/03/24 03:29:42;;;;;;;4.43;3.03;;;;;;;;;;5033907;28;20213;-76
2023/03/24 03:32:54;;;;;;;8.27;3.30;;;;;;;;;;5033407;28;20189;-75
2023/03/24 03:36:07;;;;;;;4.20;3.50;;;;;;;;;;5010170;28;20204;-75
2023/03/24 03:39:19;;;;;;;4.80;3.50;;;;;;;;;;5033525;28;20193;-75
2023/03/24 03:42:23;;;;;;;6.43;3.30;;;;;;;;;;5010069;28;20189;-76
2023/03/24 03:45:27;;;;;;;4.47;3.50;;;;;;;;;;5021335;28;20184;-75
2023/03/24 03:48:33;;;;;;;3.80;3.40;;;;;;;;;;5020894;28;20220;-75
2023/03/24 03:51:37;;;;;;;4.80;3.60;;;;;;;;;;5021484;28;20188;-75
2023/03/24 03:54:42;;;;;;;6.10;3.60;;;;;;;;;;5020728;28;20188;-75
2023/03/24 03:57:47;;;;;;;4.50;3.70;;;;;;;;;;5021270;28;20535;-75
2023/03/24 04:01:15;;;;;;;4.60;3.40;;;;;;;;;;5012669;28;20287;-75
2023/03/24 04:04:56;;;;;;;5.10;3.20;;;;;;;;;;5023659;28;20181;-75
2023/03/24 04:08:20;;;;;;;5.37;3.20;;;;;;;;;;5011112;28;20224;-75
2023/03/24 04:12:08;;;;;;;4.33;3.27;;;;;;;;;;5020852;28;20197;-75
2023/03/24 04:15:27;;;;;;;7.50;3.50;;;;;;;;;;5020372;28;20212;-75
2023/03/24 04:19:17;;;;;;;4.17;3.10;;;;;;;;;;5009834;28;20220;-75
2023/03/24 04:22:56;;;;;;;3.73;2.70;;;;;;;;;;5009517;28;20189;-75
2023/03/24 04:26:13;;;;;;;3.53;3.23;;;;;;;;;;5022214;28;20192;-75
2023/03/24 04:29:32;;;;;;;3.53;2.93;;;;;;;;;;5024707;28;20212;-75
2023/03/24 04:32:59;;;;;;;5.63;3.40;;;;;;;;;;5024536;28;20185;-75
2023/03/24 04:36:15;;;;;;;4.63;3.27;;;;;;;;;;5024934;28;20188;-75
2023/03/24 04:39:37;;;;;;;7.63;3.30;;;;;;;;;;5024493;28;20185;-75
2023/03/24 04:42:51;;;;;;;3.87;2.90;;;;;;;;;;5035611;28;20193;-76
2023/03/24 04:45:56;;;;;;;4.17;3.00;;;;;;;;;;5013363;28;20189;-76
2023/03/24 04:49:19;;;;;;;3.73;3.20;;;;;;;;;;5024504;28;20213;-76
2023/03/24 04:52:26;;;;;;;3.83;3.10;;;;;;;;;;5024552;28;20181;-76
2023/03/24 04:55:58;;;;;;;4.70;3.40;;;;;;;;;;5012935;28;20188;-75
2023/03/24 04:59:32;;;;;;;5.70;2.93;;;;;;;;;;5019997;28;20204;-76
2023/03/24 05:02:37;;;;;;;4.27;3.33;;;;;;;;;;5023987;28;20193;-76
2023/03/24 05:05:47;;;;;;;6.17;3.37;;;;;;;;;;5012971;28;20184;-75
2023/03/24 05:08:52;;;;;;;3.97;2.83;;;;;;;;;;5023716;28;20220;-75
2023/03/24 05:11:57;;;;;;;6.07;3.53;;;;;;;;;;5024038;28;20189;-75
2023/03/24 05:15:02;;;;;;;4.23;3.20;;;;;;;;;;5033998;28;20211;-75
2023/03/24 05:18:07;;;;;;;5.37;3.30;;;;;;;;;;5043522;28;20212;-75
2023/03/24 05:21:11;;;;;;;4.47;3.20;;;;;;;;;;5032487;28;20177;-75
2023/03/24 05:24:16;;;;;;;6.97;3.77;;;;;;;;;;5043515;28;20180;-75
2023/03/24 05:27:20;;;;;;;3.87;3.07;;;;;;;;;;5043214;28;20216;-76
2023/03/24 05:30:24;;;;;;;4.30;3.07;;;;;;;;;;5020730;28;20223;-75
2023/03/24 05:33:34;;;;;;;4.40;3.20;;;;;;;;;;5031862;28;20218;-76
2023/03/24 05:36:39;;;;;;;5.37;3.57;;;;;;;;;;5043486;28;20189;-75
2023/03/24 05:39:43;;;;;;;7.43;3.80;;;;;;;;;;5043137;28;20632;-76
2023/03/24 05:43:07;;;;;;;3.97;3.07;;;;;;;;;;5043446;28;20180;-75
2023/03/24 05:46:17;;;;;;;7.50;3.20;;;;;;;;;;5031832;28;20184;-75
2023/03/24 05:49:22;;;;;;;5.23;3.70;;;;;;;;;;5031984;28;20672;-75
2023/03/24 05:52:26;;;;;;;9.53;3.67;;;;;;;;;;5031750;28;20180;-75
2023/03/24 05:55:40;;;;;;;6.10;4.10;;;;;;;;;;5043000;28;20184;-75
2023/03/24 05:59:03;;;;;;;4.30;3.77;;;;;;;;;;5042830;28;20228;-75
2023/03/24 06:02:34;;;;;;;4.67;3.70;;;;;;;;;;5031478;28;20193;-75
2023/03/24 06:05:44;;;;;;;6.23;3.97;;;;;;;;;;5032059;28;20184;-75
2023/03/24 06:08:49;;;;;;;5.20;3.87;;;;;;;;;;5042663;28;20219;-75
2023/03/24 06:11:55;;;;;;;4.87;3.73;;;;;;;;;;5042348;28;20196;-75
2023/03/24 06:14:59;;;;;;;5.37;4.03;;;;;;;;;;5032986;28;20209;-75
2023/03/24 06:18:04;;;;;;;5.53;3.87;;;;;;;;;;5022417;28;20239;-75
2023/03/24 06:21:11;;;;;;;5.43;3.83;;;;;;;;;;5023089;28;20181;-75
2023/03/24 06:24:18;;;;;;;5.67;4.20;;;;;;;;;;5022677;28;20181;-76
2023/03/24 06:27:24;;;;;;;6.23;4.33;;;;;;;;;;5034264;28;20213;-75
2023/03/24 06:30:30;;;;;;;6.90;3.97;;;;;;;;;;5033963;28;20209;-75
2023/03/24 06:33:34;;;;;;;6.27;4.27;;;;;;;;;;5033492;28;20196;-75
2023/03/24 06:36:38;;;;;;;6.23;3.80;;;;;;;;;;5022612;28;20200;-76
2023/03/24 06:39:44;;;;;;;4.80;3.73;;;;;;;;;;5011175;28;20188;-76
2023/03/24 06:42:50;;;;;;;8.37;4.20;;;;;;;;;;5022509;28;20527;-76
2023/03/24 06:45:55;;;;;;;6.23;4.77;;;;;;;;;;5022349;28;20181;-75
2023/03/24 06:49:01;;;;;;;6.90;4.07;;;;;;;;;;5010666;28;20572;-75
2023/03/24 06:52:05;;;;;;;3.57;3.23;;;;;;;;;;5022290;28;20180;-75
2023/03/24 06:55:13;;;;;;;4.57;4.00;;;;;;;;;;5021862;28;20189;-75
2023/03/24 06:58:17;;;;;;;6.33;3.93;;;;;;;;;;5010481;28;20224;-75
2023/03/24 07:01:31;;;;;;;5.23;3.80;;;;;;;;;;5034077;28;20181;-75
2023/03/24 07:04:42;;;;;;;4.70;3.47;;;;;;;;;;5021737;28;20665;-75
2023/03/24 07:08:04;;;;;;;5.70;3.63;;;;;;;;;;5012564;28;20315;-75
2023/03/24 07:11:16;;;;;;;4.63;3.60;;;;;;;;;;5022141;28;20209;-75
2023/03/24 07:14:30;;;;;;;4.67;3.40;;;;;;;;;;5021527;28;20205;-75
2023/03/24 07:17:35;;;;;;;4.30;3.40;;;;;;;;;;5021657;28;20685;-75
2023/03/24 07:20:53;;;;;;;5.23;3.57;;;;;;;;;;5001211;28;20185;-75
2023/03/24 07:24:01;;;;;;;5.90;3.90;;;;;;;;;;4999232;28;20204;-75
2023/03/24 07:27:11;;;;;;;3.80;3.37;;;;;;;;;;5021694;28;20220;-75
2023/03/24 07:30:15;;;;;;;4.20;3.27;;;;;;;;;;5021671;28;20220;-75
2023/03/24 07:33:23;;;;;;;3.47;2.83;;;;;;;;;;5021402;28;20180;-75
2023/03/24 07:36:27;;;;;;;5.87;3.37;;;;;;;;;;5010367;28;20188;-75
2023/03/24 07:39:33;;;;;;;4.23;2.93;;;;;;;;;;5033449;28;20181;-75
2023/03/24 07:42:41;;;;;;;3.70;3.10;;;;;;;;;;5021449;28;20189;-75
2023/03/24 07:46:09;;;;;;;5.17;3.23;;;;;;;;;;5039636;28;20651;-75
2023/03/24 07:49:14;;;;;;;3.50;3.20;;;;;;;;;;5021006;28;20200;-75
2023/03/24 07:52:18;;;;;;;5.10;3.90;;;;;;;;;;5032596;28;20681;-76
2023/03/24 07:55:26;;;;;;;4.30;3.57;;;;;;;;;;5009888;28;20184;-76
2023/03/24 07:58:34;;;;;;;5.00;3.70;;;;;;;;;;5009831;28;20224;-76
2023/03/24 08:01:59;;;;;;;5.37;4.33;;;;;;;;;;5012290;28;20181;-76
2023/03/24 08:05:22;;;;;;;6.37;4.03;;;;;;;;;;5033540;28;20189;-76
2023/03/24 08:08:48;;;;;;;5.53;4.20;;;;;;;;;;5021126;28;20225;-76
2023/03/24 08:11:52;;;;;;;6.07;4.47;;;;;;;;;;5033053;28;20232;-75
2023/03/24 08:14:56;;;;;;;5.93;4.17;;;;;;;;;;5032899;28;20554;-75
2023/03/24 08:18:00;;;;;;;4.90;4.40;;;;;;;;;;5033166;28;20685;-75
2023/03/24 08:21:05;;;;;;;5.57;4.27;;;;;;;;;;5021141;28;20185;-76
2023/03/24 08:24:09;;;;;;;4.57;3.97;;;;;;;;;;5020906;28;20185;-76
2023/03/24 08:27:13;;;;;;;5.17;3.90;;;;;;;;;;5032705;28;20220;-76
2023/03/24 08:30:23;;;;;;;7.60;3.87;;;;;;;;;;5020545;28;20228;-75
2023/03/24 08:33:27;;;;;;;5.50;4.10;;;;;;;;;;5020576;28;20547;-75
2023/03/24 08:36:32;;;;;;;3.80;3.40;;;;;;;;;;5020851;28;20177;-75
2023/03/24 08:39:36;;;;;;;7.73;3.83;;;;;;;;;;5020916;28;20661;-75
2023/03/24 08:42:41;;;;;;;5.33;3.90;;;;;;;;;;5020801;28;20185;-75
2023/03/24 08:45:45;;;;;;;5.43;3.80;;;;;;;;;;5033208;28;20181;-76
2023/03/24 08:48:49;;;;;;;5.80;3.67;;;;;;;;;;5009182;28;20566;-76
2023/03/24 08:51:53;;;;;;;8.33;3.60;;;;;;;;;;5032806;28;20208;-76
2023/03/24 08:54:57;;;;;;;7.00;4.30;;;;;;;;;;5009434;28;20189;-76
2023/03/24 08:58:02;;;;;;;6.17;3.80;;;;;;;;;;5020407;28;20220;-76
2023/03/24 09:01:06;;;;;;;4.27;3.70;;;;;;;;;;5020911;28;20181;-76
2023/03/24 09:04:10;;;;;;;6.03;3.63;;;;;;;;;;5032686;28;20185;-76
2023/03/24 09:07:15;;;;;;;5.00;3.37;;;;;;;;;;5020499;28;20225;-75
2023/03/24 09:10:21;;;;;;;6.23;3.67;;;;;;;;;;5032352;28;20208;-76
2023/03/24 09:13:25;;;;;;;5.10;3.67;;;;;;;;;;5023716;28;20189;-76
2023/03/24 09:16:29;;;;;;;4.60;3.70;;;;;;;;;;5035955;28;20181;-75
2023/03/24 09:19:34;;;;;;;3.27;2.80;;;;;;;;;;5036115;28;20185;-76
2023/03/24 09:22:40;;;;;;;4.50;3.50;;;;;;;;;;5036349;28;20173;-75
2023/03/24 09:25:44;;;;;;;4.40;3.23;;;;;;;;;;5012530;28;20201;-76
2023/03/24 09:28:48;;;;;;;3.87;3.10;;;;;;;;;;5035693;28;20217;-76
2023/03/24 09:31:52;;;;;;;6.47;3.43;;;;;;;;;;5023943;28;20719;-76
2023/03/24 09:34:56;;;;;;;4.63;3.17;;;;;;;;;;5024009;28;20197;-75
2023/03/24 09:38:01;;;;;;;4.27;2.87;;;;;;;;;;5023851;28;20216;-75
2023/03/24 09:41:15;;;;;;;3.10;2.70;;;;;;;;;;5035795;28;20176;-76
2023/03/24 09:44:32;;;;;;;6.63;2.93;;;;;;;;;;5023603;28;20189;-76
2023/03/24 09:47:40;;;;;;;3.47;2.50;;;;;;;;;;5023226;28;20567;-76
2023/03/24 09:51:03;;;;;;;3.27;2.73;;;;;;;;;;5034748;28;20554;-76
2023/03/24 09:54:27;;;;;;;2.53;2.33;;;;;;;;;;5023308;28;20642;-75
2023/03/24 09:57:38;;;;;;;4.93;2.57;;;;;;;;;;5035167;28;20221;-75
2023/03/24 10:00:44;;;;;;;5.10;2.73;;;;;;;;;;5023186;28;20189;-75
2023/03/24 10:03:48;;;;;;;3.07;2.50;;;;;;;;;;5035145;28;20200;-75
2023/03/24 10:07:24;;;;;;;3.17;2.70;;;;;;;;;;5012446;28;20193;-75
2023/03/24 10:10:56;;;;;;;3.53;2.80;;;;;;;;;;5034913;28;20193;-75
2023/03/24 10:14:43;;;;;;;3.63;2.47;;;;;;;;;;5011752;28;20669;-75
2023/03/24 10:18:05;;;;;;;5.50;2.70;;;;;;;;;;5034994;28;20567;-75
2023/03/24 10:21:13;;;;;;;4.20;3.00;;;;;;;;;;5011714;28;20181;-75
2023/03/24 10:24:33;;;;;;;3.90;2.60;;;;;;;;;;5034212;28;20181;-75
2023/03/24 10:27:56;;;;;;;3.10;2.70;;;;;;;;;;5012951;28;20554;-76
2023/03/24 10:31:07;;;;;;;3.63;2.53;;;;;;;;;;5034353;28;20216;-75
2023/03/24 10:34:11;;;;;;;3.33;2.30;;;;;;;;;;5034807;28;20633;-76
2023/03/24 10:37:16;;;;;;;4.57;1.83;;;;;;;;;;5010858;28;20220;-76
2023/03/24 10:40:25;;;;;;;3.03;2.13;;;;;;;;;;5022175;28;20634;-75
2023/03/24 10:43:31;;;;;;;2.30;2.00;;;;;;;;;;5034495;28;20177;-76
2023/03/24 10:46:40;;;;;;;5.00;2.20;;;;;;;;;;5034332;28;20185;-75
2023/03/24 10:50:07;;;;;;;2.30;1.90;;;;;;;;;;5011135;28;20181;-74
2023/03/24 10:53:18;;;;;;;2.90;2.03;;;;;;;;;;5034087;28;20181;-74
2023/03/24 10:56:39;;;;;;;3.93;1.87;;;;;;;;;;5022524;28;20181;-75
2023/03/24 10:59:55;;;;;;;2.07;1.87;;;;;;;;;;5034317;28;20196;-74
2023/03/24 11:03:03;;;;;;;2.27;1.80;;;;;;;;;;5033901;28;20185;-74
2023/03/24 11:06:16;;;;;;;2.87;1.87;;;;;;;;;;5034405;28;20185;-74
2023/03/24 11:09:21;;;;;;;2.67;2.03;;;;;;;;;;5033748;28;20181;-74
2023/03/24 11:12:31;;;;;;;3.23;2.30;;;;;;;;;;5033513;28;20221;-75
2023/03/24 11:15:36;;;;;;;2.87;2.13;;;;;;;;;;5032846;28;20204;-74
2023/03/24 11:18:55;;;;;;;3.70;2.50;;;;;;;;;;5021475;28;20216;-74
2023/03/24 11:22:02;;;;;;;3.07;2.67;;;;;;;;;;5033952;28;20185;-74
2023/03/24 11:25:11;;;;;;;5.37;2.60;;;;;;;;;;5033914;28;20184;-73
2023/03/24 11:28:21;;;;;;;3.50;2.90;;;;;;;;;;4998987;28;20224;-74
2023/03/24 11:31:31;;;;;;;2.53;2.30;;;;;;;;;;4999018;28;20212;-74
2023/03/24 11:34:41;;;;;;;3.23;2.70;;;;;;;;;;5021515;28;20653;-74
2023/03/24 11:37:46;;;;;;;4.47;2.80;;;;;;;;;;5021487;28;20220;-74
2023/03/24 11:40:57;;;;;;;3.50;2.30;;;;;;;;;;5021496;28;20173;-74
2023/03/24 11:44:18;;;;;;;3.00;2.10;;;;;;;;;;5021247;28;20637;-75
2023/03/24 11:47:35;;;;;;;2.40;1.90;;;;;;;;;;5033387;28;20228;-75
2023/03/24 11:50:40;;;;;;;2.17;1.80;;;;;;;;;;5033697;28;20193;-75
2023/03/24 11:53:48;;;;;;;1.70;1.60;;;;;;;;;;5021412;28;20181;-74
2023/03/24 11:56:56;;;;;;;2.73;1.50;;;;;;;;;;5033270;28;20189;-75
2023/03/24 12:00:13;;;;;;;1.57;1.23;;;;;;;;;;5021191;28;20189;-74
2023/03/24 12:03:33;;;;;;;2.13;1.40;;;;;;;;;;5021258;28;20181;-75
2023/03/24 12:06:59;;;;;;;1.40;1.10;;;;;;;;;;5010101;28;20189;-74
2023/03/24 12:10:24;;;;;;;1.97;1.20;;;;;;;;;;5033345;28;20189;-75
2023/03/24 12:13:38;;;;;;;1.43;1.30;;;;;;;;;;5033216;28;20177;-75
2023/03/24 12:17:12;;;;;;;1.67;1.40;;;;;;;;;;5033164;28;20185;-74
2023/03/24 12:20:37;;;;;;;2.33;1.60;;;;;;;;;;5032915;28;20189;-74
2023/03/24 12:23:44;;;;;;;5.37;1.33;;;;;;;;;;5020770;28;20181;-74
2023/03/24 12:26:52;;;;;;;3.63;1.60;;;;;;;;;;5020822;28;20185;-75
2023/03/24 12:30:07;;;;;;;1.67;1.30;;;;;;;;;;5009889;28;20515;-75
2023/03/24 12:33:22;;;;;;;2.80;1.60;;;;;;;;;;5033001;28;20217;-75
2023/03/24 12:36:45;;;;;;;2.40;1.60;;;;;;;;;;5032996;28;20189;-74
2023/03/24 12:39:57;;;;;;;1.97;1.57;;;;;;;;;;5009403;28;20185;-74
2023/03/24 12:43:40;;;;;;;1.80;1.50;;;;;;;;;;5032897;28;20511;-74
2023/03/24 12:46:59;;;;;;;1.93;1.60;;;;;;;;;;5013509;28;20213;-74
2023/03/24 12:50:22;;;;;;;4.80;1.90;;;;;;;;;;5024776;28;20185;-74
2023/03/24 12:53:40;;;;;;;2.10;1.90;;;;;;;;;;5036705;28;20185;-74
2023/03/24 12:56:55;;;;;;;2.40;1.87;;;;;;;;;;5024318;28;20546;-74
2023/03/24 13:00:05;;;;;;;3.10;1.97;;;;;;;;;;5036186;28;20193;-74
2023/03/24 13:03:14;;;;;;;3.37;2.00;;;;;;;;;;5036344;28;20182;-74
2023/03/24 13:06:24;;;;;;;3.67;1.80;;;;;;;;;;5024499;28;20535;-74
2023/03/24 13:10:05;;;;;;;9.33;1.77;;;;;;;;;;5024373;28;20526;-74
2023/03/24 13:13:23;;;;;;;3.10;1.60;;;;;;;;;;5042013;28;20665;-74
2023/03/24 13:16:34;;;;;;;2.33;1.67;;;;;;;;;;5035909;28;20629;-74
2023/03/24 13:19:40;;;;;;;2.43;1.63;;;;;;;;;;5035811;28;20181;-74
2023/03/24 13:22:45;;;;;;;1.90;1.70;;;;;;;;;;5012112;28;20200;-73
2023/03/24 13:26:17;;;;;;;1.60;1.30;;;;;;;;;;5023270;28;20180;-74
2023/03/24 13:29:31;;;;;;;1.80;1.60;;;;;;;;;;5023688;28;20181;-74
2023/03/24 13:32:40;;;;;;;1.77;1.47;;;;;;;;;;5036067;28;20677;-74
2023/03/24 13:36:33;;;;;;;2.07;1.10;;;;;;;;;;5023799;28;20185;-73
2023/03/24 13:39:38;;;;;;;1.00;0.80;;;;;;;;;;5035559;28;20189;-73
2023/03/24 13:42:46;;;;;;;2.40;0.90;;;;;;;;;;5035660;28;20638;-74
2023/03/24 13:45:58;;;;;;;2.93;0.83;;;;;;;;;;5023696;28;20185;-74
2023/03/24 13:49:08;;;;;;;10.60;1.57;;;;;;;;;;5035443;28;20220;-73
2023/03/24 13:52:43;;;;;;;6.67;1.07;;;;;;;;;;5035409;28;20212;-74
2023/03/24 13:55:51;;;;;;;9.93;0.97;;;;;;;;;;5011987;28;20205;-73
2023/03/24 13:58:58;;;;;;;4.67;0.80;;;;;;;;;;5034107;28;20228;-73
2023/03/24 14:02:27;;;;;;;1.77;0.80;;;;;;;;;;5023029;28;20200;-73
2023/03/24 14:05:40;;;;;;;2.20;0.90;;;;;;;;;;5000731;28;20189;-74
2023/03/24 14:08:50;;;;;;;2.77;1.10;;;;;;;;;;5035099;28;20693;-74
2023/03/24 14:11:54;;;;;;;3.87;0.97;;;;;;;;;;5035042;28;20216;-74
2023/03/24 14:15:17;;;;;;;0.93;0.70;;;;;;;;;;5034940;28;20205;-74
2023/03/24 14:18:24;;;;;;;2.73;0.77;;;;;;;;;;5022883;28;20220;-73
2023/03/24 14:21:30;;;;;;;0.80;0.60;;;;;;;;;;5035485;28;20618;-73
2023/03/24 14:24:35;;;;;;;0.73;0.50;;;;;;;;;;5022551;28;20189;-74
2023/03/24 14:27:47;;;;;;;0.60;0.60;;;;;;;;;;5002783;28;20229;-74
2023/03/24 14:31:14;;;;;;;1.23;0.80;;;;;;;;;;5002911;28;20194;-74
2023/03/24 14:34:20;;;;;;;1.07;0.70;;;;;;;;;;5014923;28;20186;-74
2023/03/24 14:37:26;;;;;;;1.60;0.93;;;;;;;;;;5014923;28;20221;-73
2023/03/24 14:40:38;;;;;;;3.73;0.83;;;;;;;;;;5015337;28;20186;-74
2023/03/24 14:43:43;;;;;;;2.03;0.90;;;;;;;;;;5002845;28;20512;-74
2023/03/24 14:46:49;;;;;;;1.17;0.67;;;;;;;;;;5002855;28;20194;-74
2023/03/24 14:49:54;;;;;;;2.67;1.00;;;;;;;;;;5014617;28;20181;-75
2023/03/24 14:53:01;;;;;;;0.80;0.80;;;;;;;;;;5002519;28;20556;-74
2023/03/24 14:56:11;;;;;;;0.77;0.70;;;;;;;;;;5002397;28;20201;-74
2023/03/24 14:59:46;;;;;;;1.67;0.67;;;;;;;;;;5002576;28;20193;-74
2023/03/24 15:02:54;;;;;;;1.70;0.60;;;;;;;;;;5002197;28;20186;-73
2023/03/24 15:06:27;;;;;;;1.70;0.80;;;;;;;;;;5014365;28;20186;-74
2023/03/24 15:09:37;;;;;;;0.83;0.73;;;;;;;;;;4990774;28;20185;-74
2023/03/24 15:12:45;;;;;;;1.73;0.70;;;;;;;;;;5014240;28;20209;-74
2023/03/24 15:15:50;;;;;;;0.70;0.63;;;;;;;;;;5009851;28;20214;-74
2023/03/24 15:19:14;;;;;;;0.63;0.60;;;;;;;;;;5013305;28;20221;-74
2023/03/24 15:22:19;;;;;;;0.53;0.53;;;;;;;;;;5007493;28;20185;-74
2023/03/24 15:25:27;;;;;;;1.47;1.00;;;;;;;;;;5024541;28;20189;-74
2023/03/24 15:28:32;;;;;;;1.10;0.60;;;;;;;;;;5012815;28;20563;-74
2023/03/24 15:31:36;;;;;;;0.93;0.70;;;;;;;;;;5014209;28;20511;-73
2023/03/24 15:34:45;;;;;;;0.70;0.60;;;;;;;;;;5024394;28;20185;-74
2023/03/24 15:37:51;;;;;;;0.80;0.60;;;;;;;;;;5013097;28;20217;-74
2023/03/24 15:41:03;;;;;;;0.77;0.67;;;;;;;;;;5013963;28;20639;-74
2023/03/24 15:44:07;;;;;;;1.00;0.67;;;;;;;;;;5012947;28;20177;-73
2023/03/24 15:47:23;;;;;;;1.30;0.63;;;;;;;;;;5013921;28;20225;-73
2023/03/24 15:50:32;;;;;;;2.43;0.60;;;;;;;;;;5013330;28;20189;-74
2023/03/24 15:53:55;;;;;;;0.73;0.70;;;;;;;;;;5013555;28;20256;-74
2023/03/24 15:57:11;;;;;;;0.83;0.60;;;;;;;;;;5012777;28;20189;-74
2023/03/24 16:00:22;;;;;;;0.80;0.70;;;;;;;;;;5012610;28;20189;-74
2023/03/24 16:03:28;;;;;;;1.67;0.80;;;;;;;;;;5012859;28;20181;-74
2023/03/24 16:06:35;;;;;;;0.70;0.60;;;;;;;;;;5013450;28;20662;-74
2023/03/24 16:09:39;;;;;;;1.37;0.67;;;;;;;;;;5013515;28;20197;-74
2023/03/24 16:12:43;;;;;;;1.73;0.83;;;;;;;;;;5013521;28;20225;-73
2023/03/24 16:15:56;;;;;;;0.60;0.50;;;;;;;;;;5013209;28;20209;-72
2023/03/24 16:19:01;;;;;;;0.77;0.63;;;;;;;;;;5013272;28;20216;-73
2023/03/24 16:22:10;;;;;;;1.03;0.77;;;;;;;;;;5002720;28;20205;-74
2023/03/24 16:25:15;;;;;;;1.70;0.77;;;;;;;;;;5017148;28;20185;-73
2023/03/24 16:28:21;;;;;;;0.80;0.80;;;;;;;;;;5005388;28;20217;-73
2023/03/24 16:31:32;;;;;;;1.20;0.57;;;;;;;;;;5005143;28;20531;-73
2023/03/24 16:34:36;;;;;;;0.97;0.77;;;;;;;;;;5004864;28;20181;-73
2023/03/24 16:37:41;;;;;;;0.73;0.60;;;;;;;;;;5004844;28;20217;-73
2023/03/24 16:40:49;;;;;;;1.20;0.80;;;;;;;;;;5016095;28;20680;-73
2023/03/24 16:43:53;;;;;;;1.30;0.70;;;;;;;;;;5004895;28;20186;-73
2023/03/24 16:46:57;;;;;;;1.30;0.97;;;;;;;;;;5016852;28;20632;-73
2023/03/24 16:50:23;;;;;;;1.20;1.07;;;;;;;;;;5016853;28;20178;-74
2023/03/24 16:53:27;;;;;;;0.50;0.50;;;;;;;;;;4993476;28;20218;-73
2023/03/24 16:56:32;;;;;;;1.63;0.60;;;;;;;;;;5004534;28;20181;-73
2023/03/24 16:59:36;;;;;;;0.90;0.80;;;;;;;;;;5016989;28;20186;-74
2023/03/24 17:02:47;;;;;;;0.70;0.60;;;;;;;;;;5004910;28;20634;-73
2023/03/24 17:05:51;;;;;;;0.70;0.70;;;;;;;;;;4993597;28;20189;-73
2023/03/24 17:08:56;;;;;;;0.80;0.70;;;;;;;;;;5016414;28;20705;-73
2023/03/24 17:12:01;;;;;;;0.87;0.70;;;;;;;;;;5004354;28;20189;-73
2023/03/24 17:15:06;;;;;;;2.60;0.77;;;;;;;;;;5016199;28;20206;-73
2023/03/24 17:18:10;;;;;;;0.70;0.70;;;;;;;;;;5004382;28;20213;-73
2023/03/24 17:21:18;;;;;;;0.97;0.80;;;;;;;;;;5016317;28;20201;-73
2023/03/24 17:24:24;;;;;;;1.37;0.90;;;;;;;;;;5015973;28;20178;-73
2023/03/24 17:27:29;;;;;;;2.60;0.90;;;;;;;;;;5015875;28;20697;-74
2023/03/24 17:30:33;;;;;;;1.53;0.70;;;;;;;;;;5004126;28;20189;-74
2023/03/24 17:33:37;;;;;;;1.13;0.80;;;;;;;;;;4991515;28;20233;-73
2023/03/24 17:36:41;;;;;;;1.03;0.90;;;;;;;;;;5016045;28;20178;-73
2023/03/24 17:39:46;;;;;;;1.50;0.80;;;;;;;;;;5015726;28;20185;-74
2023/03/24 17:42:50;;;;;;;1.00;0.90;;;;;;;;;;5016125;28;20178;-73
2023/03/24 17:45:59;;;;;;;0.67;0.67;;;;;;;;;;5015856;28;20177;-75
2023/03/24 17:49:03;;;;;;;1.30;0.90;;;;;;;;;;5016162;28;20217;-75
2023/03/24 17:52:07;;;;;;;1.03;0.87;;;;;;;;;;5015795;28;20547;-74
2023/03/24 17:55:14;;;;;;;3.37;2.60;;;;;;;;;;5015690;28;20198;-75
2023/03/24 17:58:19;;;;;;;1.87;1.30;;;;;;;;;;5015567;28;20221;-73
2023/03/24 18:01:23;;;;;;;1.30;1.10;;;;;;;;;;5015624;28;20186;-74
2023/03/24 18:04:28;;;;;;;3.70;1.07;;;;;;;;;;4991936;28;20193;-75
2023/03/24 18:07:32;;;;;;;1.43;1.10;;;;;;;;;;5015321;28;20221;-74
2023/03/24 18:10:37;;;;;;;1.43;1.20;;;;;;;;;;5015361;28;20182;-74
2023/03/24 18:13:42;;;;;;;1.90;1.60;;;;;;;;;;5003523;28;20214;-74
2023/03/24 18:16:46;;;;;;;1.30;0.90;;;;;;;;;;5015544;28;20186;-74
2023/03/24 18:19:50;;;;;;;1.03;0.93;;;;;;;;;;5014946;28;20186;-74
2023/03/24 18:22:54;;;;;;;2.00;1.23;;;;;;;;;;5015570;28;20185;-74
2023/03/24 18:26:00;;;;;;;1.50;1.00;;;;;;;;;;5015565;28;20189;-74
2023/03/24 18:29:04;;;;;;;1.33;0.83;;;;;;;;;;5002866;28;20217;-73
2023/03/24 18:32:08;;;;;;;2.07;1.17;;;;;;;;;;5014611;28;20201;-73
2023/03/24 18:35:15;;;;;;;1.70;1.00;;;;;;;;;;5015118;28;20198;-74
2023/03/24 18:38:21;;;;;;;1.20;1.00;;;;;;;;;;5014708;28;20221;-74
2023/03/24 18:41:27;;;;;;;1.30;1.03;;;;;;;;;;4991358;28;20190;-74
2023/03/24 18:44:31;;;;;;;1.43;0.83;;;;;;;;;;5002685;28;20181;-74
2023/03/24 18:47:35;;;;;;;1.53;0.83;;;;;;;;;;5002248;28;20216;-74
2023/03/24 18:50:39;;;;;;;1.00;0.93;;;;;;;;;;5014661;28;20190;-74
2023/03/24 18:53:43;;;;;;;2.23;1.10;;;;;;;;;;5002308;28;20213;-74
2023/03/24 18:56:48;;;;;;;1.30;1.00;;;;;;;;;;5014560;28;20185;-76
2023/03/24 18:59:52;;;;;;;2.80;1.20;;;;;;;;;;5002159;28;20666;-73
2023/03/24 19:02:56;;;;;;;1.10;0.90;;;;;;;;;;5014180;28;20189;-73
2023/03/24 19:06:04;;;;;;;2.77;0.93;;;;;;;;;;5014523;28;20186;-73